sensor_id;sensor_type;location;lat;lon;timestamp;P1;durP1;ratioP1;P2;durP2;ratioP2
60233;SDS011;49514;43.538;-5.708;2024-01-16T00:01:06;20.10;;;3.47;;
60233;SDS011;49514;43.538;-5.708;2024-01-16T00:03:33;15.80;;;3.38;;
60233;SDS011;49514;43.538;-5.708;2024-01-16T00:06:00;13.07;;;2.67;;
60233;SDS011;49514;43.538;-5.708;2024-01-16T00:08:27;8.25;;;2.67;;
60233;SDS011;49514;43.538;-5.708;2024-01-16T00:10:54;16.77;;;3.17;;
60233;SDS011;49514;43.538;-5.708;2024-01-16T00:13:21;12.00;;;2.90;;
60233;SDS011;49514;43.538;-5.708;2024-01-16T00:15:48;14.52;;;2.88;;
60233;SDS011;49514;43.538;-5.708;2024-01-16T00:18:15;12.98;;;2.70;;
60233;SDS011;49514;43.538;-5.708;2024-01-16T00:20:42;10.80;;;2.90;;
60233;SDS011;49514;43.538;-5.708;2024-01-16T00:23:09;8.35;;;2.58;;
60233;SDS011;49514;43.538;-5.708;2024-01-16T00:25:36;9.73;;;2.20;;
60233;SDS011;49514;43.538;-5.708;2024-01-16T00:28:03;11.48;;;2.55;;
60233;SDS011;49514;43.538;-5.708;2024-01-16T00:30:30;9.63;;;2.85;;
60233;SDS011;49514;43.538;-5.708;2024-01-16T00:32:57;11.95;;;2.80;;
60233;SDS011;49514;43.538;-5.708;2024-01-16T00:35:24;11.20;;;2.80;;
60233;SDS011;49514;43.538;-5.708;2024-01-16T00:37:51;9.45;;;3.00;;
60233;SDS011;49514;43.538;-5.708;2024-01-16T00:40:18;7.47;;;2.58;;
60233;SDS011;49514;43.538;-5.708;2024-01-16T00:42:45;14.43;;;2.63;;
60233;SDS011;49514;43.538;-5.708;2024-01-16T00:45:12;10.85;;;2.28;;
60233;SDS011;49514;43.538;-5.708;2024-01-16T00:47:38;11.93;;;2.72;;
60233;SDS011;49514;43.538;-5.708;2024-01-16T00:50:05;7.13;;;2.28;;
60233;SDS011;49514;43.538;-5.708;2024-01-16T00:52:32;12.32;;;2.50;;
60233;SDS011;49514;43.538;-5.708;2024-01-16T00:54:59;13.63;;;2.65;;
60233;SDS011;49514;43.538;-5.708;2024-01-16T00:57:26;13.13;;;2.45;;
60233;SDS011;49514;43.538;-5.708;2024-01-16T00:59:53;10.20;;;2.47;;
60233;SDS011;49514;43.538;-5.708;2024-01-16T01:02:20;7.35;;;2.53;;
60233;SDS011;49514;43.538;-5.708;2024-01-16T01:04:46;12.48;;;3.80;;
60233;SDS011;49514;43.538;-5.708;2024-01-16T01:07:13;13.68;;;3.20;;
60233;SDS011;49514;43.538;-5.708;2024-01-16T01:09:40;9.20;;;2.22;;
60233;SDS011;49514;43.538;-5.708;2024-01-16T01:12:08;11.85;;;2.97;;
60233;SDS011;49514;43.538;-5.708;2024-01-16T01:14:35;11.25;;;2.97;;
60233;SDS011;49514;43.538;-5.708;2024-01-16T01:17:02;11.68;;;2.60;;
60233;SDS011;49514;43.538;-5.708;2024-01-16T01:19:29;11.77;;;2.78;;
60233;SDS011;49514;43.538;-5.708;2024-01-16T01:21:56;13.20;;;3.00;;
60233;SDS011;49514;43.538;-5.708;2024-01-16T01:24:23;10.30;;;3.00;;
60233;SDS011;49514;43.538;-5.708;2024-01-16T01:26:50;12.13;;;3.80;;
60233;SDS011;49514;43.538;-5.708;2024-01-16T01:29:18;16.20;;;6.18;;
60233;SDS011;49514;43.538;-5.708;2024-01-16T01:31:45;19.88;;;5.65;;
60233;SDS011;49514;43.538;-5.708;2024-01-16T01:34:13;18.23;;;6.07;;
60233;SDS011;49514;43.538;-5.708;2024-01-16T01:36:40;18.50;;;6.30;;
60233;SDS011;49514;43.538;-5.708;2024-01-16T01:39:09;14.55;;;6.03;;
60233;SDS011;49514;43.538;-5.708;2024-01-16T01:41:37;15.63;;;4.95;;
60233;SDS011;49514;43.538;-5.708;2024-01-16T01:44:03;19.50;;;5.90;;
60233;SDS011;49514;43.538;-5.708;2024-01-16T01:46:30;15.82;;;5.20;;
60233;SDS011;49514;43.538;-5.708;2024-01-16T01:49:00;10.05;;;4.35;;
60233;SDS011;49514;43.538;-5.708;2024-01-16T01:51:27;9.20;;;4.07;;
60233;SDS011;49514;43.538;-5.708;2024-01-16T01:53:54;11.60;;;4.43;;
60233;SDS011;49514;43.538;-5.708;2024-01-16T01:56:21;11.82;;;5.22;;
60233;SDS011;49514;43.538;-5.708;2024-01-16T01:58:49;13.65;;;5.30;;
60233;SDS011;49514;43.538;-5.708;2024-01-16T02:01:19;16.55;;;5.78;;
60233;SDS011;49514;43.538;-5.708;2024-01-16T02:03:47;11.63;;;4.70;;
60233;SDS011;49514;43.538;-5.708;2024-01-16T02:06:15;11.57;;;4.90;;
60233;SDS011;49514;43.538;-5.708;2024-01-16T02:08:43;13.02;;;5.32;;
60233;SDS011;49514;43.538;-5.708;2024-01-16T02:11:11;13.20;;;5.28;;
60233;SDS011;49514;43.538;-5.708;2024-01-16T02:13:38;13.10;;;4.90;;
60233;SDS011;49514;43.538;-5.708;2024-01-16T02:16:05;10.85;;;5.78;;
60233;SDS011;49514;43.538;-5.708;2024-01-16T02:18:32;11.35;;;5.30;;
60233;SDS011;49514;43.538;-5.708;2024-01-16T02:21:02;9.38;;;4.38;;
60233;SDS011;49514;43.538;-5.708;2024-01-16T02:23:31;7.32;;;3.35;;
60233;SDS011;49514;43.538;-5.708;2024-01-16T02:25:59;8.20;;;3.38;;
60233;SDS011;49514;43.538;-5.708;2024-01-16T02:28:26;11.60;;;3.78;;
60233;SDS011;49514;43.538;-5.708;2024-01-16T02:30:53;10.25;;;4.20;;
60233;SDS011;49514;43.538;-5.708;2024-01-16T02:33:20;6.00;;;3.58;;
60233;SDS011;49514;43.538;-5.708;2024-01-16T02:35:47;9.40;;;3.97;;
60233;SDS011;49514;43.538;-5.708;2024-01-16T02:38:14;9.60;;;4.03;;
60233;SDS011;49514;43.538;-5.708;2024-01-16T02:40:41;9.10;;;2.97;;
60233;SDS011;49514;43.538;-5.708;2024-01-16T02:43:08;10.30;;;3.00;;
60233;SDS011;49514;43.538;-5.708;2024-01-16T02:45:35;7.85;;;2.50;;
60233;SDS011;49514;43.538;-5.708;2024-01-16T02:48:02;9.98;;;2.58;;
60233;SDS011;49514;43.538;-5.708;2024-01-16T02:50:29;14.77;;;3.10;;
60233;SDS011;49514;43.538;-5.708;2024-01-16T02:52:56;17.40;;;3.63;;
60233;SDS011;49514;43.538;-5.708;2024-01-16T02:55:23;9.57;;;3.17;;
60233;SDS011;49514;43.538;-5.708;2024-01-16T02:57:50;11.70;;;3.10;;
60233;SDS011;49514;43.538;-5.708;2024-01-16T03:00:17;11.07;;;2.92;;
60233;SDS011;49514;43.538;-5.708;2024-01-16T03:02:44;17.05;;;3.50;;
60233;SDS011;49514;43.538;-5.708;2024-01-16T03:05:11;42.55;;;4.82;;
60233;SDS011;49514;43.538;-5.708;2024-01-16T03:07:37;53.28;;;6.88;;
60233;SDS011;49514;43.538;-5.708;2024-01-16T03:10:04;52.53;;;6.40;;
60233;SDS011;49514;43.538;-5.708;2024-01-16T03:12:31;38.13;;;5.75;;
60233;SDS011;49514;43.538;-5.708;2024-01-16T03:14:58;26.55;;;5.20;;
60233;SDS011;49514;43.538;-5.708;2024-01-16T03:17:25;25.08;;;5.20;;
60233;SDS011;49514;43.538;-5.708;2024-01-16T03:19:52;34.88;;;5.55;;
60233;SDS011;49514;43.538;-5.708;2024-01-16T03:22:18;31.02;;;5.28;;
60233;SDS011;49514;43.538;-5.708;2024-01-16T03:24:45;24.90;;;4.85;;
60233;SDS011;49514;43.538;-5.708;2024-01-16T03:27:12;23.75;;;4.28;;
60233;SDS011;49514;43.538;-5.708;2024-01-16T03:29:39;16.58;;;4.03;;
60233;SDS011;49514;43.538;-5.708;2024-01-16T03:32:06;13.00;;;4.47;;
60233;SDS011;49514;43.538;-5.708;2024-01-16T03:34:33;13.35;;;3.33;;
60233;SDS011;49514;43.538;-5.708;2024-01-16T03:37:02;17.13;;;3.72;;
60233;SDS011;49514;43.538;-5.708;2024-01-16T03:39:29;10.52;;;3.47;;
60233;SDS011;49514;43.538;-5.708;2024-01-16T03:41:55;20.25;;;3.75;;
60233;SDS011;49514;43.538;-5.708;2024-01-16T03:44:22;13.50;;;3.20;;
60233;SDS011;49514;43.538;-5.708;2024-01-16T03:46:49;18.20;;;3.53;;
60233;SDS011;49514;43.538;-5.708;2024-01-16T03:49:16;10.65;;;3.20;;
60233;SDS011;49514;43.538;-5.708;2024-01-16T03:51:43;8.52;;;3.13;;
60233;SDS011;49514;43.538;-5.708;2024-01-16T03:54:12;16.55;;;3.30;;
60233;SDS011;49514;43.538;-5.708;2024-01-16T03:56:39;14.90;;;3.17;;
60233;SDS011;49514;43.538;-5.708;2024-01-16T03:59:06;12.90;;;3.67;;
60233;SDS011;49514;43.538;-5.708;2024-01-16T04:01:33;14.68;;;3.15;;
60233;SDS011;49514;43.538;-5.708;2024-01-16T04:04:02;7.82;;;3.22;;
60233;SDS011;49514;43.538;-5.708;2024-01-16T04:06:32;7.10;;;3.20;;
60233;SDS011;49514;43.538;-5.708;2024-01-16T04:08:59;11.05;;;3.50;;
60233;SDS011;49514;43.538;-5.708;2024-01-16T04:11:26;11.05;;;3.45;;
60233;SDS011;49514;43.538;-5.708;2024-01-16T04:13:53;10.93;;;3.97;;
60233;SDS011;49514;43.538;-5.708;2024-01-16T04:16:21;12.00;;;3.60;;
60233;SDS011;49514;43.538;-5.708;2024-01-16T04:18:48;9.82;;;3.55;;
60233;SDS011;49514;43.538;-5.708;2024-01-16T04:21:15;7.65;;;3.50;;
60233;SDS011;49514;43.538;-5.708;2024-01-16T04:23:41;7.78;;;3.75;;
60233;SDS011;49514;43.538;-5.708;2024-01-16T04:26:08;6.95;;;3.50;;
60233;SDS011;49514;43.538;-5.708;2024-01-16T04:28:35;8.70;;;4.00;;
60233;SDS011;49514;43.538;-5.708;2024-01-16T04:31:05;11.70;;;4.05;;
60233;SDS011;49514;43.538;-5.708;2024-01-16T04:33:32;7.13;;;3.65;;
60233;SDS011;49514;43.538;-5.708;2024-01-16T04:35:59;10.38;;;4.35;;
60233;SDS011;49514;43.538;-5.708;2024-01-16T04:38:26;13.57;;;3.50;;
60233;SDS011;49514;43.538;-5.708;2024-01-16T04:40:53;5.22;;;3.30;;
60233;SDS011;49514;43.538;-5.708;2024-01-16T04:43:19;7.85;;;3.40;;
60233;SDS011;49514;43.538;-5.708;2024-01-16T04:45:47;8.23;;;3.47;;
60233;SDS011;49514;43.538;-5.708;2024-01-16T04:48:14;11.20;;;3.75;;
60233;SDS011;49514;43.538;-5.708;2024-01-16T04:50:40;8.68;;;3.20;;
60233;SDS011;49514;43.538;-5.708;2024-01-16T04:53:07;9.75;;;4.10;;
60233;SDS011;49514;43.538;-5.708;2024-01-16T04:55:34;12.52;;;4.57;;
60233;SDS011;49514;43.538;-5.708;2024-01-16T04:58:01;19.58;;;4.93;;
60233;SDS011;49514;43.538;-5.708;2024-01-16T05:00:28;11.52;;;4.45;;
60233;SDS011;49514;43.538;-5.708;2024-01-16T05:02:55;18.02;;;5.47;;
60233;SDS011;49514;43.538;-5.708;2024-01-16T05:05:22;14.27;;;5.03;;
60233;SDS011;49514;43.538;-5.708;2024-01-16T05:07:48;10.77;;;4.53;;
60233;SDS011;49514;43.538;-5.708;2024-01-16T05:10:15;11.43;;;3.85;;
60233;SDS011;49514;43.538;-5.708;2024-01-16T05:12:42;10.75;;;3.90;;
60233;SDS011;49514;43.538;-5.708;2024-01-16T05:15:09;8.68;;;3.80;;
60233;SDS011;49514;43.538;-5.708;2024-01-16T05:17:40;8.23;;;3.85;;
60233;SDS011;49514;43.538;-5.708;2024-01-16T05:20:07;6.88;;;4.05;;
60233;SDS011;49514;43.538;-5.708;2024-01-16T05:22:34;12.60;;;3.90;;
60233;SDS011;49514;43.538;-5.708;2024-01-16T05:25:01;7.55;;;3.72;;
60233;SDS011;49514;43.538;-5.708;2024-01-16T05:27:28;10.18;;;4.13;;
60233;SDS011;49514;43.538;-5.708;2024-01-16T05:29:55;12.07;;;4.75;;
60233;SDS011;49514;43.538;-5.708;2024-01-16T05:32:22;11.45;;;4.55;;
60233;SDS011;49514;43.538;-5.708;2024-01-16T05:34:49;11.25;;;4.53;;
60233;SDS011;49514;43.538;-5.708;2024-01-16T05:37:15;9.82;;;4.80;;
60233;SDS011;49514;43.538;-5.708;2024-01-16T05:39:42;9.45;;;4.90;;
60233;SDS011;49514;43.538;-5.708;2024-01-16T05:42:09;9.60;;;4.32;;
60233;SDS011;49514;43.538;-5.708;2024-01-16T05:44:37;14.93;;;5.20;;
60233;SDS011;49514;43.538;-5.708;2024-01-16T05:47:04;10.05;;;4.82;;
60233;SDS011;49514;43.538;-5.708;2024-01-16T05:49:31;22.27;;;5.80;;
60233;SDS011;49514;43.538;-5.708;2024-01-16T05:51:58;10.57;;;5.15;;
60233;SDS011;49514;43.538;-5.708;2024-01-16T05:54:25;9.48;;;4.82;;
60233;SDS011;49514;43.538;-5.708;2024-01-16T05:56:52;13.88;;;5.07;;
60233;SDS011;49514;43.538;-5.708;2024-01-16T05:59:18;13.93;;;5.22;;
60233;SDS011;49514;43.538;-5.708;2024-01-16T06:01:45;14.02;;;5.55;;
60233;SDS011;49514;43.538;-5.708;2024-01-16T06:04:12;9.43;;;5.55;;
60233;SDS011;49514;43.538;-5.708;2024-01-16T06:06:39;20.17;;;6.55;;
60233;SDS011;49514;43.538;-5.708;2024-01-16T06:09:10;21.50;;;5.90;;
60233;SDS011;49514;43.538;-5.708;2024-01-16T06:11:39;19.02;;;6.18;;
60233;SDS011;49514;43.538;-5.708;2024-01-16T06:14:07;19.42;;;5.57;;
60233;SDS011;49514;43.538;-5.708;2024-01-16T06:16:34;21.52;;;5.35;;
60233;SDS011;49514;43.538;-5.708;2024-01-16T06:19:01;13.75;;;5.68;;
60233;SDS011;49514;43.538;-5.708;2024-01-16T06:21:27;15.35;;;5.32;;
60233;SDS011;49514;43.538;-5.708;2024-01-16T06:23:55;16.05;;;5.80;;
60233;SDS011;49514;43.538;-5.708;2024-01-16T06:26:22;13.57;;;6.07;;
60233;SDS011;49514;43.538;-5.708;2024-01-16T06:28:49;9.30;;;5.05;;
60233;SDS011;49514;43.538;-5.708;2024-01-16T06:31:16;11.13;;;4.68;;
60233;SDS011;49514;43.538;-5.708;2024-01-16T06:33:43;14.48;;;6.05;;
60233;SDS011;49514;43.538;-5.708;2024-01-16T06:36:10;15.38;;;6.00;;
60233;SDS011;49514;43.538;-5.708;2024-01-16T06:38:38;9.77;;;5.72;;
60233;SDS011;49514;43.538;-5.708;2024-01-16T06:41:05;12.05;;;5.43;;
60233;SDS011;49514;43.538;-5.708;2024-01-16T06:43:32;16.00;;;6.03;;
60233;SDS011;49514;43.538;-5.708;2024-01-16T06:45:59;20.23;;;5.78;;
60233;SDS011;49514;43.538;-5.708;2024-01-16T06:48:26;19.38;;;5.95;;
60233;SDS011;49514;43.538;-5.708;2024-01-16T06:50:53;14.25;;;6.00;;
60233;SDS011;49514;43.538;-5.708;2024-01-16T06:53:20;13.70;;;5.80;;
60233;SDS011;49514;43.538;-5.708;2024-01-16T06:55:47;15.10;;;5.35;;
60233;SDS011;49514;43.538;-5.708;2024-01-16T06:58:14;11.50;;;5.18;;
60233;SDS011;49514;43.538;-5.708;2024-01-16T07:00:41;16.83;;;6.15;;
60233;SDS011;49514;43.538;-5.708;2024-01-16T07:03:09;18.65;;;6.20;;
60233;SDS011;49514;43.538;-5.708;2024-01-16T07:05:36;19.67;;;5.75;;
60233;SDS011;49514;43.538;-5.708;2024-01-16T07:08:02;16.52;;;5.65;;
60233;SDS011;49514;43.538;-5.708;2024-01-16T07:10:29;15.23;;;5.53;;
60233;SDS011;49514;43.538;-5.708;2024-01-16T07:12:57;16.05;;;5.78;;
60233;SDS011;49514;43.538;-5.708;2024-01-16T07:15:24;18.67;;;6.55;;
60233;SDS011;49514;43.538;-5.708;2024-01-16T07:17:51;18.30;;;6.40;;
60233;SDS011;49514;43.538;-5.708;2024-01-16T07:20:18;18.33;;;6.50;;
60233;SDS011;49514;43.538;-5.708;2024-01-16T07:22:45;20.85;;;8.00;;
60233;SDS011;49514;43.538;-5.708;2024-01-16T07:25:12;17.20;;;7.43;;
60233;SDS011;49514;43.538;-5.708;2024-01-16T07:27:39;18.13;;;7.60;;
60233;SDS011;49514;43.538;-5.708;2024-01-16T07:30:07;16.33;;;8.98;;
60233;SDS011;49514;43.538;-5.708;2024-01-16T07:32:36;16.17;;;9.32;;
60233;SDS011;49514;43.538;-5.708;2024-01-16T07:35:03;13.63;;;8.10;;
60233;SDS011;49514;43.538;-5.708;2024-01-16T07:37:30;15.32;;;7.57;;
60233;SDS011;49514;43.538;-5.708;2024-01-16T07:39:58;17.08;;;9.02;;
60233;SDS011;49514;43.538;-5.708;2024-01-16T07:42:25;18.63;;;8.27;;
60233;SDS011;49514;43.538;-5.708;2024-01-16T07:44:52;14.98;;;8.27;;
60233;SDS011;49514;43.538;-5.708;2024-01-16T07:47:21;20.90;;;7.80;;
60233;SDS011;49514;43.538;-5.708;2024-01-16T07:49:48;16.25;;;8.02;;
60233;SDS011;49514;43.538;-5.708;2024-01-16T07:52:15;18.38;;;9.45;;
60233;SDS011;49514;43.538;-5.708;2024-01-16T07:54:41;16.60;;;7.82;;
60233;SDS011;49514;43.538;-5.708;2024-01-16T07:57:08;20.77;;;8.88;;
60233;SDS011;49514;43.538;-5.708;2024-01-16T07:59:36;23.33;;;8.52;;
60233;SDS011;49514;43.538;-5.708;2024-01-16T08:02:03;21.50;;;8.32;;
60233;SDS011;49514;43.538;-5.708;2024-01-16T08:04:31;19.10;;;8.55;;
60233;SDS011;49514;43.538;-5.708;2024-01-16T08:06:58;26.65;;;8.65;;
60233;SDS011;49514;43.538;-5.708;2024-01-16T08:09:25;26.75;;;8.95;;
60233;SDS011;49514;43.538;-5.708;2024-01-16T08:11:52;21.15;;;8.68;;
60233;SDS011;49514;43.538;-5.708;2024-01-16T08:14:19;20.05;;;8.52;;
60233;SDS011;49514;43.538;-5.708;2024-01-16T08:16:46;31.40;;;8.73;;
60233;SDS011;49514;43.538;-5.708;2024-01-16T08:19:13;20.48;;;8.30;;
60233;SDS011;49514;43.538;-5.708;2024-01-16T08:21:40;19.75;;;8.45;;
60233;SDS011;49514;43.538;-5.708;2024-01-16T08:24:07;21.88;;;7.90;;
60233;SDS011;49514;43.538;-5.708;2024-01-16T08:26:34;17.85;;;7.60;;
60233;SDS011;49514;43.538;-5.708;2024-01-16T08:29:01;19.92;;;6.55;;
60233;SDS011;49514;43.538;-5.708;2024-01-16T08:31:28;10.90;;;5.32;;
60233;SDS011;49514;43.538;-5.708;2024-01-16T08:33:55;12.00;;;5.22;;
60233;SDS011;49514;43.538;-5.708;2024-01-16T08:36:23;17.75;;;5.90;;
60233;SDS011;49514;43.538;-5.708;2024-01-16T08:38:50;17.58;;;5.82;;
60233;SDS011;49514;43.538;-5.708;2024-01-16T08:41:16;15.63;;;6.20;;
60233;SDS011;49514;43.538;-5.708;2024-01-16T08:43:43;15.95;;;6.20;;
60233;SDS011;49514;43.538;-5.708;2024-01-16T08:46:10;10.07;;;5.47;;
60233;SDS011;49514;43.538;-5.708;2024-01-16T08:48:37;14.27;;;5.32;;
60233;SDS011;49514;43.538;-5.708;2024-01-16T08:51:06;10.07;;;5.00;;
60233;SDS011;49514;43.538;-5.708;2024-01-16T08:53:34;11.68;;;5.18;;
60233;SDS011;49514;43.538;-5.708;2024-01-16T08:56:01;10.15;;;5.20;;
60233;SDS011;49514;43.538;-5.708;2024-01-16T08:58:28;12.27;;;4.80;;
60233;SDS011;49514;43.538;-5.708;2024-01-16T09:00:55;10.32;;;5.07;;
60233;SDS011;49514;43.538;-5.708;2024-01-16T09:03:22;14.20;;;5.63;;
60233;SDS011;49514;43.538;-5.708;2024-01-16T09:05:48;11.75;;;5.30;;
60233;SDS011;49514;43.538;-5.708;2024-01-16T09:08:15;16.65;;;5.07;;
60233;SDS011;49514;43.538;-5.708;2024-01-16T09:10:43;7.50;;;4.78;;
60233;SDS011;49514;43.538;-5.708;2024-01-16T09:13:09;11.27;;;4.38;;
60233;SDS011;49514;43.538;-5.708;2024-01-16T09:15:37;9.18;;;4.60;;
60233;SDS011;49514;43.538;-5.708;2024-01-16T09:18:05;9.05;;;4.38;;
60233;SDS011;49514;43.538;-5.708;2024-01-16T09:20:32;10.50;;;4.90;;
60233;SDS011;49514;43.538;-5.708;2024-01-16T09:22:59;6.60;;;4.00;;
60233;SDS011;49514;43.538;-5.708;2024-01-16T09:25:26;10.38;;;4.85;;
60233;SDS011;49514;43.538;-5.708;2024-01-16T09:27:55;7.28;;;4.60;;
60233;SDS011;49514;43.538;-5.708;2024-01-16T09:30:22;7.97;;;4.53;;
60233;SDS011;49514;43.538;-5.708;2024-01-16T09:32:49;15.32;;;6.30;;
60233;SDS011;49514;43.538;-5.708;2024-01-16T09:35:16;22.05;;;6.65;;
60233;SDS011;49514;43.538;-5.708;2024-01-16T09:37:43;20.83;;;6.53;;
60233;SDS011;49514;43.538;-5.708;2024-01-16T09:40:10;19.88;;;6.78;;
60233;SDS011;49514;43.538;-5.708;2024-01-16T09:42:39;24.33;;;6.85;;
60233;SDS011;49514;43.538;-5.708;2024-01-16T09:45:09;36.08;;;7.78;;
60233;SDS011;49514;43.538;-5.708;2024-01-16T09:47:36;22.52;;;6.75;;
60233;SDS011;49514;43.538;-5.708;2024-01-16T09:50:04;22.25;;;6.57;;
60233;SDS011;49514;43.538;-5.708;2024-01-16T09:52:32;17.27;;;6.05;;
60233;SDS011;49514;43.538;-5.708;2024-01-16T09:54:58;13.98;;;4.88;;
60233;SDS011;49514;43.538;-5.708;2024-01-16T09:57:25;9.05;;;4.80;;
60233;SDS011;49514;43.538;-5.708;2024-01-16T09:59:52;13.52;;;4.88;;
60233;SDS011;49514;43.538;-5.708;2024-01-16T10:02:20;11.27;;;4.63;;
60233;SDS011;49514;43.538;-5.708;2024-01-16T10:04:47;10.88;;;5.15;;
60233;SDS011;49514;43.538;-5.708;2024-01-16T10:07:14;15.30;;;5.20;;
60233;SDS011;49514;43.538;-5.708;2024-01-16T10:09:43;16.20;;;6.55;;
60233;SDS011;49514;43.538;-5.708;2024-01-16T10:12:10;15.50;;;6.68;;
60233;SDS011;49514;43.538;-5.708;2024-01-16T10:14:37;15.90;;;6.40;;
60233;SDS011;49514;43.538;-5.708;2024-01-16T10:17:04;12.25;;;6.22;;
60233;SDS011;49514;43.538;-5.708;2024-01-16T10:19:34;15.25;;;6.32;;
60233;SDS011;49514;43.538;-5.708;2024-01-16T10:22:04;14.82;;;6.90;;
60233;SDS011;49514;43.538;-5.708;2024-01-16T10:24:32;22.27;;;7.25;;
60233;SDS011;49514;43.538;-5.708;2024-01-16T10:27:01;19.08;;;7.38;;
60233;SDS011;49514;43.538;-5.708;2024-01-16T10:29:29;21.63;;;7.80;;
60233;SDS011;49514;43.538;-5.708;2024-01-16T10:32:00;15.18;;;6.72;;
60233;SDS011;49514;43.538;-5.708;2024-01-16T10:34:27;14.32;;;5.90;;
60233;SDS011;49514;43.538;-5.708;2024-01-16T10:37:00;12.38;;;5.35;;
60233;SDS011;49514;43.538;-5.708;2024-01-16T10:39:27;14.68;;;5.85;;
60233;SDS011;49514;43.538;-5.708;2024-01-16T10:41:56;10.93;;;5.53;;
60233;SDS011;49514;43.538;-5.708;2024-01-16T10:44:24;17.73;;;6.40;;
60233;SDS011;49514;43.538;-5.708;2024-01-16T10:47:09;19.10;;;6.88;;
60233;SDS011;49514;43.538;-5.708;2024-01-16T10:49:37;20.67;;;7.15;;
60233;SDS011;49514;43.538;-5.708;2024-01-16T10:52:04;20.08;;;8.25;;
60233;SDS011;49514;43.538;-5.708;2024-01-16T10:54:35;17.88;;;7.65;;
60233;SDS011;49514;43.538;-5.708;2024-01-16T10:57:04;15.43;;;6.45;;
60233;SDS011;49514;43.538;-5.708;2024-01-16T10:59:34;15.25;;;6.03;;
60233;SDS011;49514;43.538;-5.708;2024-01-16T11:02:02;10.73;;;5.20;;
60233;SDS011;49514;43.538;-5.708;2024-01-16T11:04:31;12.77;;;5.13;;
60233;SDS011;49514;43.538;-5.708;2024-01-16T11:06:58;15.38;;;4.97;;
60233;SDS011;49514;43.538;-5.708;2024-01-16T11:09:26;17.02;;;4.95;;
60233;SDS011;49514;43.538;-5.708;2024-01-16T11:11:54;8.63;;;4.60;;
60233;SDS011;49514;43.538;-5.708;2024-01-16T11:14:22;11.77;;;5.30;;
60233;SDS011;49514;43.538;-5.708;2024-01-16T11:16:50;10.23;;;4.72;;
60233;SDS011;49514;43.538;-5.708;2024-01-16T11:19:17;10.00;;;4.82;;
60233;SDS011;49514;43.538;-5.708;2024-01-16T11:21:45;7.60;;;4.35;;
60233;SDS011;49514;43.538;-5.708;2024-01-16T11:24:12;16.45;;;4.72;;
60233;SDS011;49514;43.538;-5.708;2024-01-16T11:26:39;10.38;;;4.90;;
60233;SDS011;49514;43.538;-5.708;2024-01-16T11:31:53;15.35;;;5.25;;
60233;SDS011;49514;43.538;-5.708;2024-01-16T11:37:07;9.13;;;4.45;;
60233;SDS011;49514;43.538;-5.708;2024-01-16T11:39:34;9.45;;;4.55;;
60233;SDS011;49514;43.538;-5.708;2024-01-16T11:42:01;16.38;;;6.60;;
60233;SDS011;49514;43.538;-5.708;2024-01-16T11:47:19;32.50;;;10.52;;
60233;SDS011;49514;43.538;-5.708;2024-01-16T11:50:26;49.95;;;19.27;;
60233;SDS011;49514;43.538;-5.708;2024-01-16T11:52:43;34.35;;;15.07;;
60233;SDS011;49514;43.538;-5.708;2024-01-16T11:55:30;34.25;;;10.18;;
60233;SDS011;49514;43.538;-5.708;2024-01-16T11:58:11;36.67;;;9.70;;
60233;SDS011;49514;43.538;-5.708;2024-01-16T12:00:42;27.48;;;8.43;;
60233;SDS011;49514;43.538;-5.708;2024-01-16T12:03:17;17.15;;;7.53;;
60233;SDS011;49514;43.538;-5.708;2024-01-16T12:05:46;25.63;;;6.72;;
60233;SDS011;49514;43.538;-5.708;2024-01-16T12:08:21;16.63;;;5.82;;
60233;SDS011;49514;43.538;-5.708;2024-01-16T12:10:48;16.58;;;5.13;;
60233;SDS011;49514;43.538;-5.708;2024-01-16T12:13:15;11.63;;;4.88;;
60233;SDS011;49514;43.538;-5.708;2024-01-16T12:15:43;15.75;;;4.85;;
60233;SDS011;49514;43.538;-5.708;2024-01-16T12:18:20;14.27;;;4.45;;
60233;SDS011;49514;43.538;-5.708;2024-01-16T12:20:47;10.73;;;3.80;;
60233;SDS011;49514;43.538;-5.708;2024-01-16T12:23:14;15.90;;;3.95;;
60233;SDS011;49514;43.538;-5.708;2024-01-16T12:25:40;13.10;;;4.25;;
60233;SDS011;49514;43.538;-5.708;2024-01-16T12:28:08;16.30;;;4.75;;
60233;SDS011;49514;43.538;-5.708;2024-01-16T12:30:37;15.93;;;4.70;;
60233;SDS011;49514;43.538;-5.708;2024-01-16T12:33:08;11.82;;;5.15;;
60233;SDS011;49514;43.538;-5.708;2024-01-16T12:35:35;16.15;;;5.45;;
60233;SDS011;49514;43.538;-5.708;2024-01-16T12:38:06;21.88;;;6.25;;
60233;SDS011;49514;43.538;-5.708;2024-01-16T12:40:37;13.85;;;6.10;;
60233;SDS011;49514;43.538;-5.708;2024-01-16T12:43:06;18.67;;;6.80;;
60233;SDS011;49514;43.538;-5.708;2024-01-16T12:45:35;21.70;;;6.72;;
60233;SDS011;49514;43.538;-5.708;2024-01-16T12:48:02;17.60;;;6.50;;
60233;SDS011;49514;43.538;-5.708;2024-01-16T12:50:29;15.30;;;6.97;;
60233;SDS011;49514;43.538;-5.708;2024-01-16T12:53:00;16.50;;;6.40;;
60233;SDS011;49514;43.538;-5.708;2024-01-16T12:55:28;19.40;;;6.50;;
60233;SDS011;49514;43.538;-5.708;2024-01-16T12:58:14;19.17;;;6.32;;
60233;SDS011;49514;43.538;-5.708;2024-01-16T13:00:48;21.35;;;6.43;;
60233;SDS011;49514;43.538;-5.708;2024-01-16T13:03:18;20.58;;;6.55;;
60233;SDS011;49514;43.538;-5.708;2024-01-16T13:05:46;17.63;;;7.05;;
60233;SDS011;49514;43.538;-5.708;2024-01-16T13:08:19;23.15;;;6.78;;
60233;SDS011;49514;43.538;-5.708;2024-01-16T13:10:46;21.58;;;6.90;;
60233;SDS011;49514;43.538;-5.708;2024-01-16T13:13:21;14.82;;;6.38;;
60233;SDS011;49514;43.538;-5.708;2024-01-16T13:15:48;12.35;;;5.35;;
60233;SDS011;49514;43.538;-5.708;2024-01-16T13:18:26;13.05;;;5.57;;
60233;SDS011;49514;43.538;-5.708;2024-01-16T13:25:48;12.57;;;4.10;;
60233;SDS011;49514;43.538;-5.708;2024-01-16T13:28:16;8.05;;;3.15;;
60233;SDS011;49514;43.538;-5.708;2024-01-16T15:13:53;15.45;;;6.18;;
60233;SDS011;49514;43.538;-5.708;2024-01-16T15:16:23;15.05;;;7.30;;
60233;SDS011;49514;43.538;-5.708;2024-01-16T15:18:53;17.55;;;7.22;;
60233;SDS011;49514;43.538;-5.708;2024-01-16T15:21:22;15.73;;;6.83;;
60233;SDS011;49514;43.538;-5.708;2024-01-16T15:23:49;16.03;;;7.07;;
60233;SDS011;49514;43.538;-5.708;2024-01-16T15:26:17;13.10;;;6.50;;
60233;SDS011;49514;43.538;-5.708;2024-01-16T15:28:46;13.23;;;6.45;;
60233;SDS011;49514;43.538;-5.708;2024-01-16T15:31:13;9.70;;;5.70;;
60233;SDS011;49514;43.538;-5.708;2024-01-16T15:33:43;10.73;;;5.40;;
60233;SDS011;49514;43.538;-5.708;2024-01-16T15:36:09;11.57;;;5.68;;
60233;SDS011;49514;43.538;-5.708;2024-01-16T15:38:36;11.43;;;5.53;;
60233;SDS011;49514;43.538;-5.708;2024-01-16T15:41:03;12.85;;;6.43;;
60233;SDS011;49514;43.538;-5.708;2024-01-16T15:43:30;15.20;;;7.13;;
60233;SDS011;49514;43.538;-5.708;2024-01-16T15:45:57;12.10;;;6.80;;
60233;SDS011;49514;43.538;-5.708;2024-01-16T15:48:24;15.82;;;7.15;;
60233;SDS011;49514;43.538;-5.708;2024-01-16T15:50:58;12.35;;;7.00;;
60233;SDS011;49514;43.538;-5.708;2024-01-16T15:53:25;15.20;;;7.53;;
60233;SDS011;49514;43.538;-5.708;2024-01-16T15:55:52;16.20;;;7.47;;
60233;SDS011;49514;43.538;-5.708;2024-01-16T15:58:19;13.65;;;7.47;;
60233;SDS011;49514;43.538;-5.708;2024-01-16T16:00:45;22.00;;;8.48;;
60233;SDS011;49514;43.538;-5.708;2024-01-16T16:03:12;20.90;;;8.30;;
60233;SDS011;49514;43.538;-5.708;2024-01-16T16:05:39;21.25;;;8.30;;
60233;SDS011;49514;43.538;-5.708;2024-01-16T16:08:07;27.50;;;8.88;;
60233;SDS011;49514;43.538;-5.708;2024-01-16T16:10:34;22.93;;;9.67;;
60233;SDS011;49514;43.538;-5.708;2024-01-16T16:13:01;22.65;;;9.13;;
60233;SDS011;49514;43.538;-5.708;2024-01-16T16:15:30;24.83;;;9.48;;
60233;SDS011;49514;43.538;-5.708;2024-01-16T16:17:57;16.35;;;8.30;;
60233;SDS011;49514;43.538;-5.708;2024-01-16T16:20:24;15.87;;;8.53;;
60233;SDS011;49514;43.538;-5.708;2024-01-16T17:09:33;16.77;;;8.88;;